Time;durP1;ratioP1;P1;durP2;ratioP2;P2;SDS_P1;SDS_P2;PMS_P1;PMS_P2;Temp;Humidity;BMP_temperature;BMP_pressure;BME280_temperature;BME280_humidity;BME280_pressure;Samples;Min_cycle;Max_cycle;Signal;HPM_P1;HPM_P2
2022/08/31 00:04:04;;;;;;;11.18;10.02;;;;;;;21.37;80.36;94692.88;4972318;28;20281;-81
2022/08/31 00:06:32;;;;;;;13.57;9.45;;;;;;;21.36;80.64;94697.28;4972442;28;20661;-82
2022/08/31 00:09:00;;;;;;;12.05;10.32;;;;;;;21.32;80.83;94690.88;4972684;28;20229;-78
2022/08/31 00:11:30;;;;;;;11.75;10.52;;;;;;;21.37;80.65;94701.47;4973157;28;20554;-82
2022/08/31 00:13:58;;;;;;;12.23;10.68;;;;;;;21.37;80.95;94703.28;4972839;28;20320;-81
2022/08/31 00:16:50;;;;;;;13.25;10.25;;;;;;;21.26;81.17;94689.06;4972736;28;20189;-81
2022/08/31 00:19:18;;;;;;;11.55;10.05;;;;;;;20.95;81.33;94633.31;4931655;29;20293;-81
2022/08/31 00:21:45;;;;;;;12.15;9.77;;;;;;;21.33;81.34;94691.66;4932415;29;20206;-78
2022/08/31 00:24:13;;;;;;;12.60;10.20;;;;;;;21.27;81.40;94688.06;4931911;29;20199;-81
2022/08/31 00:26:41;;;;;;;11.70;10.50;;;;;;;21.30;81.56;94696.25;4931719;29;20218;-82
2022/08/31 00:29:08;;;;;;;11.45;9.20;;;;;;;21.23;81.72;94681.66;4931396;29;20226;-80
2022/08/31 00:31:35;;;;;;;13.07;10.27;;;;;;;21.08;82.42;94661.09;4931239;29;20687;-80
2022/08/31 00:34:02;;;;;;;15.75;9.80;;;;;;;21.28;82.37;94690.44;4931326;29;20183;-82
2022/08/31 00:36:30;;;;;;;10.88;9.15;;;;;;;21.19;82.17;94683.06;4930991;29;20630;-77
2022/08/31 00:38:57;;;;;;;11.38;10.20;;;;;;;21.30;81.83;94695.47;4931085;29;20219;-82
2022/08/31 00:41:28;;;;;;;10.48;9.52;;;;;;;20.91;81.83;94639.13;4931240;29;20235;-82
2022/08/31 00:43:57;;;;;;;12.90;9.48;;;;;;;21.31;81.93;94697.06;4931718;29;20211;-79
2022/08/31 00:46:26;;;;;;;12.13;9.55;;;;;;;21.29;82.32;94704.28;4932658;29;20201;-81
2022/08/31 00:49:01;;;;;;;11.02;9.50;;;;;;;21.30;82.41;94698.88;4930423;29;20218;-80
2022/08/31 00:51:32;;;;;;;10.93;9.30;;;;;;;21.29;82.76;94699.88;4930766;29;20202;-80
2022/08/31 00:54:00;;;;;;;11.30;9.70;;;;;;;21.13;82.63;94673.50;4930722;29;20194;-77
2022/08/31 00:56:27;;;;;;;15.27;9.25;;;;;;;21.30;82.83;94705.88;4950382;28;20201;-78
2022/08/31 00:58:54;;;;;;;14.57;9.77;;;;;;;21.29;82.56;94705.06;4971284;28;20201;-78
2022/08/31 01:01:22;;;;;;;10.68;9.57;;;;;;;21.31;82.49;94704.88;4971236;28;20204;-78
2022/08/31 01:03:52;;;;;;;10.63;9.48;;;;;;;20.41;82.38;94573.78;4971267;28;20190;-80
2022/08/31 01:06:20;;;;;;;12.38;9.60;;;;;;;20.95;82.51;94646.31;4970718;28;20653;-78
2022/08/31 01:08:51;;;;;;;12.45;9.93;;;;;;;21.34;82.60;94708.91;4971048;28;20596;-78
2022/08/31 01:11:20;;;;;;;11.75;10.07;;;;;;;21.33;82.58;94707.28;4970826;28;20197;-79
2022/08/31 01:13:47;;;;;;;13.10;9.50;;;;;;;20.88;82.99;94632.53;4970822;28;20236;-80
2022/08/31 01:16:18;;;;;;;12.82;8.77;;;;;;;21.31;83.51;94699.66;4970901;28;20551;-78
2022/08/31 01:18:46;;;;;;;12.10;10.05;;;;;;;21.30;83.62;94698.06;4971237;28;20197;-80
2022/08/31 01:21:23;;;;;;;11.68;10.20;;;;;;;21.29;84.09;94704.28;4970722;28;20640;-80
2022/08/31 01:23:54;;;;;;;10.77;9.68;;;;;;;21.27;84.24;94707.06;4970770;28;20723;-81
2022/08/31 01:26:25;;;;;;;11.05;8.82;;;;;;;21.24;84.49;94702.28;4971099;28;20268;-81
2022/08/31 01:28:56;;;;;;;11.18;9.90;;;;;;;21.24;84.83;94698.88;4970756;28;20291;-77
2022/08/31 01:31:26;;;;;;;11.75;9.80;;;;;;;21.13;84.84;94673.50;4970501;28;20197;-78
2022/08/31 01:33:53;;;;;;;12.82;10.65;;;;;;;21.18;84.64;94677.06;4970708;28;20201;-78
2022/08/31 01:36:21;;;;;;;11.40;9.77;;;;;;;21.36;84.98;94705.06;4970225;28;20650;-80
2022/08/31 01:38:48;;;;;;;12.27;9.52;;;;;;;21.33;84.75;94694.28;4970666;28;20689;-78
2022/08/31 01:41:17;;;;;;;13.27;9.05;;;;;;;21.28;85.22;94693.06;4970481;28;20193;-79
2022/08/31 01:43:44;;;;;;;13.60;9.95;;;;;;;21.38;85.11;94703.09;4970369;28;20201;-81
2022/08/31 01:46:13;;;;;;;10.52;9.50;;;;;;;21.24;85.27;94672.84;4970215;28;20209;-80
2022/08/31 01:48:41;;;;;;;18.08;10.18;;;;;;;21.41;85.34;94694.06;4970161;28;20225;-80
2022/08/31 01:51:09;;;;;;;10.68;9.57;;;;;;;21.24;84.96;94675.47;4970331;28;20202;-78
2022/08/31 01:53:36;;;;;;;9.88;8.85;;;;;;;21.39;84.99;94702.06;4970585;28;20595;-76
2022/08/31 01:56:04;;;;;;;11.35;10.25;;;;;;;21.22;85.23;94677.47;4974258;28;20588;-78
2022/08/31 01:58:32;;;;;;;12.07;10.57;;;;;;;21.32;84.99;94690.09;4974438;28;20194;-80
2022/08/31 02:00:59;;;;;;;13.95;10.40;;;;;;;21.37;85.33;94698.06;4974103;28;20186;-79
2022/08/31 02:03:29;;;;;;;10.57;9.50;;;;;;;21.26;85.36;94684.66;4973843;28;20522;-78
2022/08/31 02:05:56;;;;;;;9.75;8.75;;;;;;;21.38;85.20;94705.69;4974236;28;20625;-80
2022/08/31 02:08:23;;;;;;;10.13;9.13;;;;;;;21.36;85.21;94697.28;4973848;28;20225;-82
2022/08/31 02:10:51;;;;;;;11.27;10.18;;;;;;;21.25;85.60;94683.06;4974102;28;20245;-83
2022/08/31 02:13:18;;;;;;;11.38;10.23;;;;;;;21.16;85.49;94670.50;4973884;28;20665;-82
2022/08/31 02:15:46;;;;;;;14.55;10.13;;;;;;;21.12;85.86;94693.50;4974384;28;20192;-78
2022/08/31 02:18:13;;;;;;;13.60;9.82;;;;;;;21.17;85.95;94704.09;4973624;28;20194;-81
2022/08/31 02:20:40;;;;;;;12.82;10.27;;;;;;;21.18;85.89;94703.09;4974673;28;20186;-82
2022/08/31 02:23:07;;;;;;;14.20;10.73;;;;;;;21.12;85.91;94693.50;4974079;28;20650;-81
2022/08/31 02:25:33;;;;;;;11.85;10.68;;;;;;;21.18;85.64;94703.09;4974121;28;20646;-79
2022/08/31 02:28:00;;;;;;;12.90;10.10;;;;;;;21.19;85.67;94702.06;4973857;28;20230;-78
2022/08/31 02:30:27;;;;;;;17.02;10.35;;;;;;;21.11;86.01;94689.28;4973612;28;20193;-78
2022/08/31 02:32:56;;;;;;;10.45;9.45;;;;;;;21.19;85.95;94701.28;4973496;28;20201;-78
2022/08/31 02:35:22;;;;;;;11.52;10.32;;;;;;;20.92;86.20;94661.53;4973337;28;20693;-79
2022/08/31 02:37:50;;;;;;;10.68;9.48;;;;;;;21.17;86.04;94692.91;4973736;28;20190;-79
2022/08/31 02:40:17;;;;;;;13.00;10.25;;;;;;;21.15;86.44;94697.47;4973421;28;20193;-81
2022/08/31 02:42:45;;;;;;;12.27;10.45;;;;;;;21.14;86.30;94698.50;4973682;28;20284;-80
2022/08/31 02:45:12;;;;;;;12.98;10.45;;;;;;;21.12;86.37;94711.72;4973139;28;20193;-79
2022/08/31 02:47:39;;;;;;;14.00;10.07;;;;;;;21.12;86.34;94693.50;4973492;28;20252;-80
2022/08/31 02:50:08;;;;;;;12.18;10.35;;;;;;;20.64;86.57;94622.75;4973178;28;20217;-79
2022/08/31 02:52:36;;;;;;;12.00;9.88;;;;;;;21.08;86.39;94694.13;4973514;28;20194;-80
2022/08/31 02:55:04;;;;;;;14.73;10.32;;;;;;;21.05;86.49;94688.31;4972949;28;20208;-78
2022/08/31 02:57:31;;;;;;;13.27;11.50;;;;;;;21.05;86.62;94687.50;4973280;28;20205;-78
2022/08/31 02:59:58;;;;;;;11.18;10.07;;;;;;;20.94;86.73;94668.13;4973236;28;20189;-78
2022/08/31 03:02:25;;;;;;;13.90;10.52;;;;;;;21.04;86.82;94689.31;4973307;28;20220;-79
2022/08/31 03:04:52;;;;;;;10.95;9.95;;;;;;;20.91;86.85;94667.72;4972886;28;20202;-81
2022/08/31 03:07:20;;;;;;;13.05;10.50;;;;;;;21.04;86.93;94688.50;4972630;28;20197;-78
2022/08/31 03:09:47;;;;;;;11.50;10.35;;;;;;;20.93;87.03;94679.50;4972912;28;20320;-78
2022/08/31 03:12:14;;;;;;;12.07;9.73;;;;;;;20.90;87.69;94690.34;4972652;28;20577;-80
2022/08/31 03:14:41;;;;;;;11.45;9.98;;;;;;;20.90;87.44;94690.34;4972958;28;20748;-80
2022/08/31 03:17:08;;;;;;;10.73;9.40;;;;;;;20.77;87.93;94687.75;4972415;28;20194;-81
2022/08/31 03:19:35;;;;;;;10.38;9.35;;;;;;;20.68;87.97;94687.16;4973188;28;20197;-80
2022/08/31 03:22:02;;;;;;;13.75;10.18;;;;;;;20.70;88.04;94694.72;4972783;28;20624;-82
2022/08/31 03:24:30;;;;;;;11.50;10.38;;;;;;;20.67;88.26;94697.72;4972942;28;20198;-81
2022/08/31 03:26:57;;;;;;;12.27;10.35;;;;;;;20.62;88.03;94694.94;4972396;28;20198;-79
2022/08/31 03:29:24;;;;;;;12.80;10.40;;;;;;;20.61;87.81;94688.13;4972819;28;20331;-80
2022/08/31 03:31:51;;;;;;;10.93;9.73;;;;;;;20.42;87.95;94661.94;4972711;28;20189;-80
2022/08/31 03:34:18;;;;;;;9.90;8.90;;;;;;;20.41;88.39;94668.09;4972722;28;20201;-79
2022/08/31 03:36:45;;;;;;;11.10;10.00;;;;;;;20.49;88.36;94680.94;4971567;28;20193;-79
2022/08/31 03:39:12;;;;;;;12.50;10.32;;;;;;;20.45;88.87;94679.69;4972884;28;20198;-79
2022/08/31 03:41:41;;;;;;;14.27;10.68;;;;;;;20.36;88.53;94675.69;4973435;28;20618;-80
2022/08/31 03:44:07;;;;;;;10.45;9.35;;;;;;;20.30;89.22;94673.91;4972291;28;20219;-82
2022/08/31 03:46:34;;;;;;;12.43;9.93;;;;;;;20.37;89.13;94689.47;4972747;28;20205;-81
2022/08/31 03:49:02;;;;;;;16.00;10.50;;;;;;;20.34;88.90;94684.69;4972304;28;20252;-80
2022/08/31 03:51:29;;;;;;;10.97;9.87;;;;;;;20.37;88.07;94686.88;4972387;28;20194;-82
2022/08/31 03:53:56;;;;;;;11.75;10.60;;;;;;;20.51;86.84;94693.75;4972772;28;20205;-81
2022/08/31 03:56:23;;;;;;;16.60;10.53;;;;;;;20.22;86.91;94640.31;4973446;28;20471;-80
2022/08/31 03:58:52;;;;;;;12.10;10.80;;;;;;;20.34;87.31;94680.28;4972062;28;20188;-80
2022/08/31 04:01:19;;;;;;;15.68;10.77;;;;;;;20.43;87.35;94692.09;4972018;28;20196;-78
2022/08/31 04:03:45;;;;;;;11.90;10.70;;;;;;;20.48;87.35;94699.31;4972284;28;20201;-80
2022/08/31 04:06:13;;;;;;;13.60;11.05;;;;;;;20.14;88.36;94659.47;4972588;28;20273;-78
2022/08/31 04:08:41;;;;;;;17.10;11.77;;;;;;;20.33;88.63;94694.25;4972157;28;20224;-80
2022/08/31 04:11:11;;;;;;;18.45;11.68;;;;;;;20.32;88.92;94697.88;4971755;28;20280;-77
2022/08/31 04:13:39;;;;;;;18.27;11.80;;;;;;;20.29;89.14;94698.25;4971483;28;20230;-78
2022/08/31 04:16:10;;;;;;;20.53;12.77;;;;;;;20.00;89.18;94656.06;4971722;28;20193;-78
2022/08/31 04:18:37;;;;;;;18.37;12.37;;;;;;;19.89;89.51;94648.84;4971687;28;20198;-77
2022/08/31 04:21:05;;;;;;;19.15;11.80;;;;;;;20.16;89.92;94701.63;4971738;28;20209;-77
2022/08/31 04:23:32;;;;;;;14.53;12.70;;;;;;;20.13;90.21;94689.06;4971828;28;20275;-78
2022/08/31 04:25:59;;;;;;;19.07;13.23;;;;;;;20.11;90.39;94690.22;4971725;28;20678;-80
2022/08/31 04:28:25;;;;;;;15.20;12.17;;;;;;;20.19;90.32;94690.06;4971640;28;20186;-78
2022/08/31 04:30:52;;;;;;;14.93;12.77;;;;;;;20.03;90.83;94670.44;4971765;28;20205;-80
2022/08/31 04:33:23;;;;;;;18.00;13.33;;;;;;;20.07;89.50;94660.47;4971437;28;20200;-79
2022/08/31 04:35:50;;;;;;;15.60;12.23;;;;;;;20.41;88.67;94696.66;4971404;28;20202;-78
2022/08/31 04:38:17;;;;;;;16.25;11.68;;;;;;;20.22;88.81;94674.09;4971492;28;20616;-79
2022/08/31 04:40:44;;;;;;;14.07;11.90;;;;;;;20.32;88.96;94689.28;4971274;28;20708;-82
2022/08/31 04:43:11;;;;;;;16.77;12.23;;;;;;;20.38;89.10;94701.47;4971337;28;20194;-83
2022/08/31 04:45:42;;;;;;;16.13;11.98;;;;;;;19.99;88.60;94632.88;4971537;28;20302;-79
2022/08/31 04:48:09;;;;;;;20.88;11.68;;;;;;;20.50;87.37;94705.09;4971467;28;20190;-79
2022/08/31 04:50:37;;;;;;;16.20;10.82;;;;;;;20.41;87.40;94701.06;4971164;28;20237;-79
2022/08/31 04:53:04;;;;;;;11.27;10.18;;;;;;;20.41;87.83;94709.66;4971239;28;20647;-79
2022/08/31 04:55:31;;;;;;;15.63;11.20;;;;;;;20.48;87.51;94712.31;4971112;28;20197;-82
2022/08/31 04:57:58;;;;;;;11.95;10.63;;;;;;;20.54;87.29;94701.91;4971336;28;20292;-80
2022/08/31 05:00:27;;;;;;;15.98;11.82;;;;;;;20.54;87.24;94701.91;4971225;28;20213;-78
2022/08/31 05:02:54;;;;;;;17.73;10.50;;;;;;;20.54;87.70;94694.13;4971569;28;20253;-80
2022/08/31 05:05:21;;;;;;;14.30;10.68;;;;;;;20.58;88.12;94691.13;4971382;28;20562;-77
2022/08/31 05:07:49;;;;;;;15.18;11.70;;;;;;;20.64;87.54;94691.13;4971649;28;20583;-78
2022/08/31 05:10:16;;;;;;;11.80;10.52;;;;;;;20.67;87.01;94679.53;4970972;28;20229;-77
2022/08/31 05:12:43;;;;;;;12.27;10.85;;;;;;;20.70;87.04;94671.34;4971473;28;20198;-76
2022/08/31 05:15:10;;;;;;;14.05;12.52;;;;;;;20.77;86.42;94695.53;4971746;28;20225;-79
2022/08/31 05:17:37;;;;;;;15.82;11.18;;;;;;;20.74;86.86;94696.72;4971722;28;20200;-77
2022/08/31 05:20:05;;;;;;;13.50;11.13;;;;;;;20.92;86.04;94690.13;4970912;28;20208;-78
2022/08/31 05:22:32;;;;;;;14.07;10.52;;;;;;;20.89;86.50;94690.50;4970905;28;20186;-78
2022/08/31 05:25:01;;;;;;;12.05;10.75;;;;;;;21.15;85.48;94694.88;4971322;28;20197;-78
2022/08/31 05:27:28;;;;;;;16.27;11.93;;;;;;;21.24;84.77;94691.88;4971652;28;20278;-79
2022/08/31 05:29:54;;;;;;;18.80;11.60;;;;;;;21.19;84.44;94681.28;4970843;28;20728;-77
2022/08/31 05:32:21;;;;;;;14.43;10.80;;;;;;;21.40;83.98;94685.44;4971105;28;20194;-79
2022/08/31 05:34:49;;;;;;;16.27;10.88;;;;;;;21.17;83.38;94617.47;4971357;28;20236;-80
2022/08/31 05:37:16;;;;;;;14.30;11.60;;;;;;;21.55;83.18;94685.22;4978249;28;20201;-78
2022/08/31 05:39:44;;;;;;;13.60;11.38;;;;;;;21.37;83.32;94672.06;4991937;28;20253;-78
2022/08/31 05:42:19;;;;;;;13.57;11.10;;;;;;;21.43;83.44;94685.06;4987222;28;20182;-79
2022/08/31 05:44:47;;;;;;;14.57;10.88;;;;;;;21.69;83.16;94675.56;4986927;28;20597;-79
2022/08/31 05:47:14;;;;;;;15.60;10.75;;;;;;;21.91;82.36;94665.63;4971116;28;20684;-77
2022/08/31 05:49:43;;;;;;;16.35;11.13;;;;;;;22.14;82.18;94680.75;4971000;28;20712;-78
2022/08/31 05:52:10;;;;;;;18.60;11.15;;;;;;;22.35;81.84;94679.63;4971099;28;20262;-79
2022/08/31 05:54:37;;;;;;;15.00;11.15;;;;;;;22.52;80.48;94676.31;4970498;28;20190;-78
2022/08/31 05:57:04;;;;;;;13.98;11.48;;;;;;;21.88;80.12;94554.09;4970895;28;20292;-79
2022/08/31 05:59:34;;;;;;;13.35;10.75;;;;;;;22.02;79.51;94556.41;4970607;28;20194;-80
2022/08/31 06:02:02;;;;;;;15.05;10.85;;;;;;;21.50;77.60;94441.25;4970754;28;20208;-81
2022/08/31 06:04:29;;;;;;;10.52;9.45;;;;;;;21.20;76.42;94378.59;4970529;28;20273;-79
2022/08/31 06:06:57;;;;;;;14.68;10.43;;;;;;;23.23;75.75;94676.94;4970904;28;20339;-79
2022/08/31 06:09:24;;;;;;;11.73;9.15;;;;;;;23.26;76.07;94674.66;4969988;28;20788;-80
2022/08/31 06:11:52;;;;;;;12.93;9.65;;;;;;;23.44;76.10;94676.50;4970680;28;20685;-78
2022/08/31 06:14:21;;;;;;;10.50;9.10;;;;;;;23.71;74.88;94674.41;4969939;28;20236;-78
2022/08/31 06:16:49;;;;;;;17.05;9.00;;;;;;;23.87;74.16;94675.63;4970730;28;20249;-80
2022/08/31 06:19:16;;;;;;;10.50;8.65;;;;;;;23.84;74.15;94639.50;4970601;28;20838;-79
2022/08/31 06:21:47;;;;;;;14.05;9.63;;;;;;;23.31;72.36;94530.50;4970673;28;20570;-79
2022/08/31 06:24:14;;;;;;;13.30;9.40;;;;;;;24.09;72.35;94665.47;4970550;28;20574;-79
2022/08/31 06:26:41;;;;;;;14.82;9.15;;;;;;;24.09;71.72;94639.34;4970618;28;20650;-79
2022/08/31 06:29:09;;;;;;;12.38;9.73;;;;;;;24.32;72.17;94669.19;4970010;28;20186;-79
2022/08/31 06:31:37;;;;;;;11.15;8.43;;;;;;;24.47;72.78;94659.94;4970188;28;20201;-80
2022/08/31 06:34:07;;;;;;;16.58;10.00;;;;;;;24.58;72.08;94652.34;4988535;28;20201;-78
2022/08/31 06:36:34;;;;;;;14.90;9.57;;;;;;;24.59;70.97;94659.97;5001553;28;20193;-80
2022/08/31 06:39:02;;;;;;;15.75;8.80;;;;;;;24.71;70.89;94670.44;4990147;28;20189;-81
2022/08/31 06:41:31;;;;;;;14.35;8.70;;;;;;;24.75;71.23;94650.66;4992929;28;20181;-80
2022/08/31 06:43:59;;;;;;;14.80;10.48;;;;;;;24.99;70.54;94670.56;4993708;28;20579;-81
2022/08/31 06:46:26;;;;;;;18.20;10.55;;;;;;;24.91;69.82;94670.88;4993109;28;20197;-80
2022/08/31 06:48:54;;;;;;;19.50;10.68;;;;;;;24.86;70.58;94659.53;4993973;28;20668;-79
2022/08/31 06:51:22;;;;;;;15.35;9.95;;;;;;;24.77;71.75;94614.59;4993673;28;20227;-81
2022/08/31 06:53:49;;;;;;;13.68;10.45;;;;;;;25.13;70.23;94638.94;4993650;28;20185;-82
2022/08/31 06:56:18;;;;;;;14.88;9.82;;;;;;;25.43;69.24;94675.44;4993477;28;20197;-79
2022/08/31 06:58:45;;;;;;;14.10;8.93;;;;;;;25.48;69.01;94675.56;4993677;28;20201;-78
2022/08/31 07:01:18;;;;;;;10.48;8.43;;;;;;;25.19;68.83;94635.44;4993406;28;20591;-80
2022/08/31 07:03:47;;;;;;;12.45;8.98;;;;;;;25.39;68.63;94674.31;4993194;28;20189;-80
2022/08/31 07:06:16;;;;;;;13.77;8.65;;;;;;;25.53;67.14;94675.66;4993170;28;20192;-80
2022/08/31 07:08:46;;;;;;;15.20;7.80;;;;;;;25.27;68.19;94608.91;4993351;28;20656;-80
2022/08/31 07:11:14;;;;;;;11.63;8.13;;;;;;;25.91;67.98;94684.84;4993228;28;20229;-79
2022/08/31 07:13:42;;;;;;;12.55;8.43;;;;;;;26.07;66.61;94672.78;4992940;28;20616;-78
2022/08/31 07:16:11;;;;;;;10.77;7.75;;;;;;;26.24;67.74;94668.38;4992895;28;20185;-79
2022/08/31 07:18:38;;;;;;;12.55;8.30;;;;;;;26.22;65.69;94652.91;4992921;28;20193;-78
2022/08/31 07:21:11;;;;;;;13.02;7.70;;;;;;;26.23;65.02;94638.75;4993060;28;20220;-78
2022/08/31 07:23:38;;;;;;;9.18;7.30;;;;;;;26.56;64.76;94678.41;4993785;28;20189;-79
2022/08/31 07:26:09;;;;;;;10.10;7.78;;;;;;;26.70;64.51;94680.47;4993222;28;20185;-80
2022/08/31 07:28:37;;;;;;;11.82;8.02;;;;;;;26.76;64.20;94682.13;4992754;28;20208;-78
2022/08/31 07:31:05;;;;;;;8.25;7.53;;;;;;;26.70;64.04;94666.56;4992524;28;20234;-80
2022/08/31 07:33:36;;;;;;;10.95;8.80;;;;;;;26.79;64.06;94685.31;4993722;28;20191;-80
2022/08/31 07:36:05;;;;;;;12.68;8.55;;;;;;;26.86;64.50;94678.09;4992709;28;20192;-79
2022/08/31 07:44:02;;;;;;;7.88;7.10;;;;;;;27.20;63.46;94682.31;4992419;28;20208;-81
2022/08/31 07:46:30;;;;;;;9.13;7.43;;;;;;;27.29;62.37;94677.44;4991138;28;20201;-78
2022/08/31 07:48:57;;;;;;;11.95;8.18;;;;;;;27.35;63.17;94689.59;4992403;28;20580;-79
2022/08/31 07:51:26;;;;;;;11.07;8.32;;;;;;;27.25;62.07;94650.88;4990892;28;20889;-79
2022/08/31 07:53:54;;;;;;;7.82;7.03;;;;;;;26.86;63.26;94567.88;4992526;28;20185;-78
2022/08/31 07:56:24;;;;;;;12.90;7.95;;;;;;;27.47;62.69;94626.44;4991642;28;20193;-79
2022/08/31 07:58:51;;;;;;;9.50;7.30;;;;;;;28.00;62.01;94675.69;4992492;28;20263;-80
2022/08/31 08:01:19;;;;;;;12.73;8.05;;;;;;;28.11;60.13;94676.59;4991764;28;20208;-80
2022/08/31 08:03:46;;;;;;;12.48;8.65;;;;;;;27.95;59.23;94682.75;4992107;28;20197;-80
2022/08/31 08:06:14;;;;;;;11.73;7.10;;;;;;;27.86;59.31;94663.97;4991556;28;20208;-77
2022/08/31 08:08:42;;;;;;;11.15;7.05;;;;;;;27.88;59.18;94674.22;4991862;28;20190;-80
2022/08/31 08:11:15;;;;;;;10.05;7.38;;;;;;;27.88;60.30;94669.75;4991304;28;20224;-80
2022/08/31 08:13:45;;;;;;;9.38;7.18;;;;;;;27.66;60.03;94614.56;4991709;28;20311;-80
2022/08/31 08:16:11;;;;;;;8.80;8.00;;;;;;;28.12;60.20;94667.66;4992208;28;20200;-81
2022/08/31 08:18:40;;;;;;;14.85;7.93;;;;;;;28.22;59.09;94662.50;4991748;28;20200;-83
2022/08/31 08:21:07;;;;;;;8.65;6.20;;;;;;;28.25;58.63;94663.84;4991977;28;20263;-81
2022/08/31 08:23:34;;;;;;;8.02;6.85;;;;;;;28.15;58.24;94635.63;4991623;28;20193;-81
2022/08/31 08:26:07;;;;;;;8.35;7.55;;;;;;;28.52;58.02;94661.22;4992439;28;20577;-81
2022/08/31 08:28:34;;;;;;;15.45;7.43;;;;;;;28.37;57.57;94632.97;4975072;28;20275;-82
2022/08/31 08:31:03;;;;;;;9.88;7.47;;;;;;;28.58;57.34;94662.06;4992207;28;20584;-77
2022/08/31 08:33:30;;;;;;;8.75;7.35;;;;;;;28.64;57.26;94661.06;4991384;28;20193;-82
2022/08/31 08:35:59;;;;;;;7.68;6.90;;;;;;;28.71;57.25;94657.19;4991733;28;20208;-80
2022/08/31 08:38:29;;;;;;;9.48;6.80;;;;;;;28.88;56.98;94661.50;4990909;28;20195;-80
2022/08/31 08:40:57;;;;;;;10.43;8.20;;;;;;;28.61;56.38;94601.81;4991614;28;20235;-80
2022/08/31 08:43:30;;;;;;;10.68;6.65;;;;;;;28.70;55.85;94644.25;4990844;28;20197;-82
2022/08/31 08:45:57;;;;;;;13.57;6.97;;;;;;;28.72;56.23;94664.03;4991189;28;20212;-81
2022/08/31 08:48:31;;;;;;;8.50;7.70;;;;;;;28.73;56.03;94652.44;4990403;28;20233;-78
2022/08/31 08:50:59;;;;;;;9.18;6.80;;;;;;;28.57;55.31;94618.38;4991836;28;20367;-80
2022/08/31 08:53:28;;;;;;;7.72;6.95;;;;;;;28.99;55.22;94656.06;4990460;28;20181;-79
2022/08/31 08:55:55;;;;;;;8.13;7.15;;;;;;;29.05;55.98;94643.72;4990611;28;20207;-80
2022/08/31 08:58:23;;;;;;;10.65;6.93;;;;;;;29.12;54.17;94640.88;4991018;28;20317;-83
2022/08/31 09:00:51;;;;;;;6.75;6.15;;;;;;;29.10;54.58;94617.44;4990726;28;20197;-80
2022/08/31 09:03:32;;;;;;;14.15;6.93;;;;;;;29.19;54.39;94629.06;4989820;28;20193;-81
2022/08/31 09:06:08;;;;;;;7.35;6.65;;;;;;;29.38;54.11;94636.53;4990926;28;20276;-81
2022/08/31 09:09:06;;;;;;;6.63;6.03;;;;;;;29.49;54.12;94624.97;4990716;28;20200;-81
2022/08/31 09:11:45;;;;;;;7.40;6.70;;;;;;;29.31;52.96;94591.19;4910837;29;20227;-79
2022/08/31 09:14:23;;;;;;;11.02;7.35;;;;;;;29.55;53.52;94621.34;4911083;29;20275;-81
2022/08/31 09:17:00;;;;;;;7.57;6.53;;;;;;;29.31;52.89;94576.16;4911245;29;20192;-80
2022/08/31 09:19:56;;;;;;;12.50;6.97;;;;;;;29.37;53.94;94577.00;4911110;29;20203;-81
2022/08/31 09:22:15;;;;;;;12.45;6.82;;;;;;;28.94;52.75;94507.78;4911311;29;20207;-81
2022/08/31 09:24:42;;;;;;;9.07;7.20;;;;;;;29.71;52.66;94604.56;4912387;29;20217;-81
2022/08/31 09:27:17;;;;;;;7.43;6.72;;;;;;;29.80;52.69;94607.47;4911313;29;20206;-83
2022/08/31 09:29:45;;;;;;;13.00;7.25;;;;;;;28.98;52.28;94472.03;4911434;29;20320;-81
2022/08/31 09:32:16;;;;;;;10.27;7.07;;;;;;;29.59;52.99;94585.53;4910986;29;20234;-81
2022/08/31 09:34:53;;;;;;;7.28;6.32;;;;;;;29.61;51.93;94614.25;4911311;29;20221;-82
2022/08/31 09:37:23;;;;;;;10.15;7.50;;;;;;;29.32;51.57;94584.84;4911223;29;20195;-81
2022/08/31 09:39:52;;;;;;;10.00;6.75;;;;;;;28.61;52.29;94479.97;4911279;29;20198;-78
2022/08/31 09:42:29;;;;;;;8.02;7.30;;;;;;;27.66;53.08;94324.75;4910974;29;20675;-81
2022/08/31 09:44:59;;;;;;;8.02;7.18;;;;;;;28.76;53.82;94495.84;4911035;29;20195;-80
2022/08/31 09:47:47;;;;;;;10.35;7.43;;;;;;;29.47;54.36;94601.53;4915150;28;20615;-83
2022/08/31 09:50:32;;;;;;;10.18;7.32;;;;;;;29.42;52.98;94577.00;4990062;28;20208;-80
2022/08/31 09:56:12;;;;;;;12.05;7.03;;;;;;;29.28;53.50;94537.19;4990177;28;20760;-78
2022/08/31 09:58:41;;;;;;;12.52;7.43;;;;;;;29.04;52.53;94544.72;4990041;28;20288;-82
2022/08/31 10:01:14;;;;;;;9.50;8.02;;;;;;;28.55;52.27;94470.47;4989950;28;20185;-78
2022/08/31 10:03:46;;;;;;;11.32;7.43;;;;;;;27.72;52.81;94318.47;4989756;28;20562;-80
2022/08/31 10:06:36;;;;;;;9.57;6.82;;;;;;;29.24;53.16;94551.91;4989789;28;20296;-81
2022/08/31 10:09:09;;;;;;;7.60;6.88;;;;;;;28.63;53.30;94454.22;4990423;28;20236;-80
2022/08/31 10:11:38;;;;;;;7.68;6.97;;;;;;;28.87;53.69;94508.00;4989437;28;20213;-76
2022/08/31 10:14:14;;;;;;;7.40;6.47;;;;;;;29.24;53.97;94557.19;4990439;28;20315;-78
2022/08/31 10:16:46;;;;;;;7.95;7.20;;;;;;;29.40;52.33;94556.16;4993130;28;20197;-77
2022/08/31 10:19:18;;;;;;;10.70;6.57;;;;;;;29.32;52.00;94555.88;4993774;28;20267;-78
2022/08/31 10:21:52;;;;;;;12.30;7.97;;;;;;;29.12;51.17;94533.69;4993023;28;20697;-79
2022/08/31 10:24:32;;;;;;;9.60;6.88;;;;;;;29.10;52.27;94533.16;4993698;28;20200;-78
2022/08/31 10:27:13;;;;;;;11.55;7.20;;;;;;;29.17;51.56;94538.97;4993386;28;20197;-77
2022/08/31 10:29:48;;;;;;;13.35;7.05;;;;;;;29.19;52.54;94522.94;4993665;28;20196;-79
2022/08/31 10:32:29;;;;;;;13.10;7.28;;;;;;;29.29;51.42;94525.59;4993441;28;20228;-78
2022/08/31 10:35:05;;;;;;;8.93;7.03;;;;;;;29.34;51.54;94522.97;4993900;28;20216;-82
2022/08/31 10:37:48;;;;;;;7.38;6.68;;;;;;;29.37;49.78;94519.81;4993127;28;20271;-82
2022/08/31 10:40:19;;;;;;;17.63;8.10;;;;;;;29.19;51.39;94521.09;4992938;28;20216;-78
2022/08/31 10:42:56;;;;;;;14.77;8.00;;;;;;;28.46;52.58;94451.75;4993640;28;20192;-77
2022/08/31 10:45:25;;;;;;;13.75;7.57;;;;;;;28.49;53.18;94515.16;4993429;28;20308;-81
2022/08/31 10:47:55;;;;;;;12.63;8.05;;;;;;;28.30;53.67;94537.63;4993782;28;20197;-78
2022/08/31 10:50:28;;;;;;;15.32;8.10;;;;;;;28.00;54.02;94532.94;4994694;28;20189;-79
2022/08/31 10:53:06;;;;;;;10.35;8.27;;;;;;;27.64;54.75;94537.84;4993292;28;20607;-80
2022/08/31 10:55:42;;;;;;;11.20;7.95;;;;;;;27.42;55.81;94551.00;4993487;28;20181;-84
2022/08/31 10:58:20;;;;;;;9.70;6.97;;;;;;;27.46;54.70;94554.72;4993501;28;20288;-80
2022/08/31 11:00:53;;;;;;;14.30;7.40;;;;;;;27.23;56.08;94558.38;4993379;28;20195;-81
2022/08/31 11:03:38;;;;;;;15.48;9.05;;;;;;;27.01;56.85;94571.47;4993405;28;20219;-81
2022/08/31 11:06:13;;;;;;;12.32;7.50;;;;;;;26.66;56.72;94531.66;4992916;28;20185;-83
2022/08/31 11:08:54;;;;;;;13.25;7.28;;;;;;;26.78;57.33;94566.44;4992524;28;20661;-83
2022/08/31 11:11:35;;;;;;;8.88;7.70;;;;;;;26.93;56.87;94598.13;4993455;28;20232;-81
2022/08/31 11:14:23;;;;;;;9.93;7.95;;;;;;;26.92;57.12;94601.00;4992603;28;20283;-82
2022/08/31 11:17:06;;;;;;;13.25;7.93;;;;;;;26.87;56.55;94607.00;4992505;28;20193;-82
2022/08/31 11:19:53;;;;;;;12.05;8.93;;;;;;;26.62;57.02;94593.50;4992407;28;20200;-80
2022/08/31 11:22:37;;;;;;;12.93;7.70;;;;;;;26.43;57.52;94598.19;4992501;28;20189;-82
2022/08/31 11:25:46;;;;;;;12.98;8.52;;;;;;;26.24;57.54;94580.03;4992308;28;20189;-80
2022/08/31 11:28:32;;;;;;;17.45;8.68;;;;;;;26.13;58.44;94574.88;4991900;28;20608;-77
2022/08/31 11:31:01;;;;;;;17.27;8.98;;;;;;;26.24;58.47;94594.97;4992132;28;20221;-79
2022/08/31 11:33:30;;;;;;;11.65;8.05;;;;;;;26.16;58.29;94585.66;4993597;28;20656;-79
2022/08/31 11:36:05;;;;;;;13.85;7.90;;;;;;;25.94;58.28;94551.50;4991871;28;20221;-79
2022/08/31 11:38:51;;;;;;;10.88;8.32;;;;;;;26.07;58.63;94558.25;4993051;28;20887;-77
2022/08/31 11:41:45;;;;;;;17.52;8.20;;;;;;;26.09;58.44;94555.41;4991960;28;20185;-77
2022/08/31 11:44:46;;;;;;;9.23;8.05;;;;;;;25.96;58.47;94546.03;4991845;28;20189;-78
2022/08/31 11:47:34;;;;;;;12.07;8.40;;;;;;;25.85;59.03;94525.91;4991717;28;20205;-77
2022/08/31 11:50:04;;;;;;;13.88;8.48;;;;;;;25.96;59.23;94535.56;4991937;28;20232;-78